sensor_id;sensor_type;location;lat;lon;timestamp;temperature;humidity
7562;DHT22;3822;48.784;9.174;2023-07-31T00:02:01;19.90;80.30
7562;DHT22;3822;48.784;9.174;2023-07-31T00:04:27;20.00;80.50
7562;DHT22;3822;48.784;9.174;2023-07-31T00:06:53;19.90;80.40
7562;DHT22;3822;48.784;9.174;2023-07-31T00:09:19;19.90;80.60
7562;DHT22;3822;48.784;9.174;2023-07-31T00:11:46;19.90;80.70
7562;DHT22;3822;48.784;9.174;2023-07-31T00:14:12;19.90;80.70
7562;DHT22;3822;48.784;9.174;2023-07-31T00:16:41;19.80;80.80
7562;DHT22;3822;48.784;9.174;2023-07-31T00:19:07;19.80;80.90
7562;DHT22;3822;48.784;9.174;2023-07-31T00:21:33;19.80;80.90
7562;DHT22;3822;48.784;9.174;2023-07-31T00:23:59;19.80;81.10
7562;DHT22;3822;48.784;9.174;2023-07-31T00:26:25;19.80;81.10
7562;DHT22;3822;48.784;9.174;2023-07-31T00:28:52;19.80;81.20
7562;DHT22;3822;48.784;9.174;2023-07-31T00:31:18;19.80;81.40
7562;DHT22;3822;48.784;9.174;2023-07-31T00:33:51;19.80;81.50
7562;DHT22;3822;48.784;9.174;2023-07-31T00:36:18;19.80;81.70
7562;DHT22;3822;48.784;9.174;2023-07-31T00:38:44;19.80;81.80
7562;DHT22;3822;48.784;9.174;2023-07-31T00:41:12;19.80;82.00
7562;DHT22;3822;48.784;9.174;2023-07-31T00:43:39;19.80;82.10
7562;DHT22;3822;48.784;9.174;2023-07-31T00:46:05;19.80;82.30
7562;DHT22;3822;48.784;9.174;2023-07-31T00:48:32;19.70;82.40
7562;DHT22;3822;48.784;9.174;2023-07-31T00:50:58;19.70;82.60
7562;DHT22;3822;48.784;9.174;2023-07-31T00:53:25;19.60;82.70
7562;DHT22;3822;48.784;9.174;2023-07-31T00:55:54;19.60;82.90
7562;DHT22;3822;48.784;9.174;2023-07-31T00:58:20;19.60;83.10
7562;DHT22;3822;48.784;9.174;2023-07-31T01:00:46;19.60;83.30
7562;DHT22;3822;48.784;9.174;2023-07-31T01:03:13;19.50;83.50
7562;DHT22;3822;48.784;9.174;2023-07-31T01:05:43;19.50;83.80
7562;DHT22;3822;48.784;9.174;2023-07-31T01:11:23;19.40;84.00
7562;DHT22;3822;48.784;9.174;2023-07-31T01:13:54;19.40;84.30
7562;DHT22;3822;48.784;9.174;2023-07-31T01:16:21;19.40;84.50
7562;DHT22;3822;48.784;9.174;2023-07-31T01:18:47;19.30;84.60
7562;DHT22;3822;48.784;9.174;2023-07-31T01:27:21;19.20;85.00
7562;DHT22;3822;48.784;9.174;2023-07-31T01:30:03;19.20;85.30
7562;DHT22;3822;48.784;9.174;2023-07-31T01:32:36;19.20;85.50
7562;DHT22;3822;48.784;9.174;2023-07-31T01:35:05;19.10;85.60
7562;DHT22;3822;48.784;9.174;2023-07-31T01:37:32;19.10;85.70
7562;DHT22;3822;48.784;9.174;2023-07-31T01:40:04;19.10;85.90
7562;DHT22;3822;48.784;9.174;2023-07-31T01:42:30;19.10;86.10
7562;DHT22;3822;48.784;9.174;2023-07-31T01:44:57;19.10;86.20
7562;DHT22;3822;48.784;9.174;2023-07-31T01:47:23;19.10;86.30
7562;DHT22;3822;48.784;9.174;2023-07-31T01:49:49;19.10;86.40
7562;DHT22;3822;48.784;9.174;2023-07-31T01:52:16;19.10;86.60
7562;DHT22;3822;48.784;9.174;2023-07-31T01:54:42;19.10;86.70
7562;DHT22;3822;48.784;9.174;2023-07-31T01:57:10;19.00;86.80
7562;DHT22;3822;48.784;9.174;2023-07-31T01:59:39;19.00;86.90
7562;DHT22;3822;48.784;9.174;2023-07-31T02:02:05;19.00;87.20
7562;DHT22;3822;48.784;9.174;2023-07-31T02:04:32;18.90;87.20
7562;DHT22;3822;48.784;9.174;2023-07-31T02:07:00;18.80;87.50
7562;DHT22;3822;48.784;9.174;2023-07-31T02:09:26;18.80;87.70
7562;DHT22;3822;48.784;9.174;2023-07-31T02:11:52;18.80;87.90
7562;DHT22;3822;48.784;9.174;2023-07-31T02:14:21;18.80;88.10
7562;DHT22;3822;48.784;9.174;2023-07-31T02:16:47;18.80;88.20
7562;DHT22;3822;48.784;9.174;2023-07-31T02:19:14;18.70;88.40
7562;DHT22;3822;48.784;9.174;2023-07-31T02:21:40;18.70;88.50
7562;DHT22;3822;48.784;9.174;2023-07-31T02:24:06;18.70;88.60
7562;DHT22;3822;48.784;9.174;2023-07-31T02:26:34;18.70;88.70
7562;DHT22;3822;48.784;9.174;2023-07-31T02:29:01;18.70;88.70
7562;DHT22;3822;48.784;9.174;2023-07-31T02:31:27;18.70;88.80
7562;DHT22;3822;48.784;9.174;2023-07-31T02:33:53;18.70;88.90
7562;DHT22;3822;48.784;9.174;2023-07-31T02:36:20;18.70;89.00
7562;DHT22;3822;48.784;9.174;2023-07-31T02:38:46;18.60;89.00
7562;DHT22;3822;48.784;9.174;2023-07-31T02:41:12;18.60;89.00
7562;DHT22;3822;48.784;9.174;2023-07-31T02:43:38;18.70;89.10
7562;DHT22;3822;48.784;9.174;2023-07-31T02:46:05;18.70;89.20
7562;DHT22;3822;48.784;9.174;2023-07-31T02:48:32;18.70;89.20
7562;DHT22;3822;48.784;9.174;2023-07-31T02:50:58;18.70;89.20
7562;DHT22;3822;48.784;9.174;2023-07-31T02:53:25;18.70;89.20
7562;DHT22;3822;48.784;9.174;2023-07-31T02:55:51;18.70;89.20
7562;DHT22;3822;48.784;9.174;2023-07-31T02:58:20;18.70;89.20
7562;DHT22;3822;48.784;9.174;2023-07-31T03:00:46;18.80;89.30
7562;DHT22;3822;48.784;9.174;2023-07-31T03:03:12;18.80;89.30
7562;DHT22;3822;48.784;9.174;2023-07-31T03:05:39;18.70;89.20
7562;DHT22;3822;48.784;9.174;2023-07-31T03:08:05;18.70;89.10
7562;DHT22;3822;48.784;9.174;2023-07-31T03:10:31;18.80;89.20
7562;DHT22;3822;48.784;9.174;2023-07-31T03:13:00;18.80;89.20
7562;DHT22;3822;48.784;9.174;2023-07-31T03:15:26;18.80;89.30
7562;DHT22;3822;48.784;9.174;2023-07-31T03:17:52;18.80;89.30
7562;DHT22;3822;48.784;9.174;2023-07-31T03:20:18;18.80;89.30
7562;DHT22;3822;48.784;9.174;2023-07-31T03:22:47;18.80;89.30
7562;DHT22;3822;48.784;9.174;2023-07-31T03:25:13;18.80;89.20
7562;DHT22;3822;48.784;9.174;2023-07-31T03:27:42;18.80;89.30
7562;DHT22;3822;48.784;9.174;2023-07-31T03:30:08;18.80;89.20
7562;DHT22;3822;48.784;9.174;2023-07-31T03:32:35;18.80;89.20
7562;DHT22;3822;48.784;9.174;2023-07-31T03:35:01;18.80;89.30
7562;DHT22;3822;48.784;9.174;2023-07-31T03:37:28;18.70;89.20
7562;DHT22;3822;48.784;9.174;2023-07-31T03:39:55;18.70;89.30
7562;DHT22;3822;48.784;9.174;2023-07-31T03:42:21;18.70;89.30
7562;DHT22;3822;48.784;9.174;2023-07-31T03:44:51;18.70;89.30
7562;DHT22;3822;48.784;9.174;2023-07-31T03:47:18;18.70;89.30
7562;DHT22;3822;48.784;9.174;2023-07-31T03:49:44;18.70;89.30
7562;DHT22;3822;48.784;9.174;2023-07-31T03:52:10;18.70;89.40
7562;DHT22;3822;48.784;9.174;2023-07-31T03:54:36;18.70;89.40
7562;DHT22;3822;48.784;9.174;2023-07-31T03:57:03;18.70;89.50
7562;DHT22;3822;48.784;9.174;2023-07-31T03:59:29;18.70;89.70
7562;DHT22;3822;48.784;9.174;2023-07-31T04:01:56;18.70;89.80
7562;DHT22;3822;48.784;9.174;2023-07-31T04:04:24;18.70;89.80
7562;DHT22;3822;48.784;9.174;2023-07-31T04:06:50;18.70;89.70
7562;DHT22;3822;48.784;9.174;2023-07-31T04:09:17;18.70;89.70
7562;DHT22;3822;48.784;9.174;2023-07-31T04:11:43;18.80;89.80
7562;DHT22;3822;48.784;9.174;2023-07-31T04:14:09;18.80;89.80
7562;DHT22;3822;48.784;9.174;2023-07-31T04:16:37;18.80;89.70
7562;DHT22;3822;48.784;9.174;2023-07-31T04:19:03;18.80;89.60
7562;DHT22;3822;48.784;9.174;2023-07-31T04:21:29;18.80;89.60
7562;DHT22;3822;48.784;9.174;2023-07-31T04:23:56;18.90;89.60
7562;DHT22;3822;48.784;9.174;2023-07-31T04:26:22;18.90;89.50
7562;DHT22;3822;48.784;9.174;2023-07-31T04:28:48;18.90;89.40
7562;DHT22;3822;48.784;9.174;2023-07-31T04:31:15;18.90;89.30
7562;DHT22;3822;48.784;9.174;2023-07-31T04:33:41;18.90;89.20
7562;DHT22;3822;48.784;9.174;2023-07-31T04:36:07;18.90;89.20
7562;DHT22;3822;48.784;9.174;2023-07-31T04:38:33;18.90;89.10
7562;DHT22;3822;48.784;9.174;2023-07-31T04:41:00;18.90;89.10
7562;DHT22;3822;48.784;9.174;2023-07-31T04:43:26;19.00;89.10
7562;DHT22;3822;48.784;9.174;2023-07-31T04:45:52;19.00;89.00
7562;DHT22;3822;48.784;9.174;2023-07-31T04:48:20;19.00;88.80
7562;DHT22;3822;48.784;9.174;2023-07-31T04:50:46;19.00;88.80
7562;DHT22;3822;48.784;9.174;2023-07-31T04:53:12;19.00;88.70
7562;DHT22;3822;48.784;9.174;2023-07-31T04:55:39;19.00;88.90
7562;DHT22;3822;48.784;9.174;2023-07-31T04:58:06;19.00;88.90
7562;DHT22;3822;48.784;9.174;2023-07-31T05:00:32;19.10;88.90
7562;DHT22;3822;48.784;9.174;2023-07-31T05:02:58;19.10;88.80
7562;DHT22;3822;48.784;9.174;2023-07-31T05:05:24;19.10;88.80
7562;DHT22;3822;48.784;9.174;2023-07-31T05:07:51;19.10;88.70
7562;DHT22;3822;48.784;9.174;2023-07-31T05:10:17;19.20;88.70
7562;DHT22;3822;48.784;9.174;2023-07-31T05:12:43;19.20;88.70
7562;DHT22;3822;48.784;9.174;2023-07-31T05:15:10;19.20;88.70
7562;DHT22;3822;48.784;9.174;2023-07-31T05:17:37;19.20;88.70
7562;DHT22;3822;48.784;9.174;2023-07-31T05:20:05;19.20;88.70
7562;DHT22;3822;48.784;9.174;2023-07-31T05:22:32;19.20;88.70
7562;DHT22;3822;48.784;9.174;2023-07-31T05:24:58;19.20;88.70
7562;DHT22;3822;48.784;9.174;2023-07-31T05:27:25;19.30;88.80
7562;DHT22;3822;48.784;9.174;2023-07-31T05:29:51;19.30;88.80
7562;DHT22;3822;48.784;9.174;2023-07-31T05:32:18;19.30;88.80
7562;DHT22;3822;48.784;9.174;2023-07-31T05:34:46;19.30;88.80
7562;DHT22;3822;48.784;9.174;2023-07-31T05:37:15;19.30;88.80
7562;DHT22;3822;48.784;9.174;2023-07-31T05:39:48;19.30;88.80
7562;DHT22;3822;48.784;9.174;2023-07-31T05:42:15;19.30;88.80
7562;DHT22;3822;48.784;9.174;2023-07-31T05:44:44;19.30;88.70
7562;DHT22;3822;48.784;9.174;2023-07-31T05:47:12;19.40;88.90
7562;DHT22;3822;48.784;9.174;2023-07-31T05:49:39;19.40;88.90
7562;DHT22;3822;48.784;9.174;2023-07-31T05:52:08;19.40;88.80
7562;DHT22;3822;48.784;9.174;2023-07-31T05:54:34;19.40;88.70
7562;DHT22;3822;48.784;9.174;2023-07-31T05:57:01;19.40;88.70
7562;DHT22;3822;48.784;9.174;2023-07-31T05:59:27;19.40;88.80
7562;DHT22;3822;48.784;9.174;2023-07-31T06:01:56;19.40;88.80
7562;DHT22;3822;48.784;9.174;2023-07-31T06:04:25;19.50;88.80
7562;DHT22;3822;48.784;9.174;2023-07-31T06:06:51;19.40;88.70
7562;DHT22;3822;48.784;9.174;2023-07-31T06:09:23;19.50;88.70
7562;DHT22;3822;48.784;9.174;2023-07-31T06:11:49;19.50;88.60
7562;DHT22;3822;48.784;9.174;2023-07-31T06:14:15;19.60;88.60
7562;DHT22;3822;48.784;9.174;2023-07-31T06:16:44;19.60;88.60
7562;DHT22;3822;48.784;9.174;2023-07-31T06:19:13;19.70;88.60
7562;DHT22;3822;48.784;9.174;2023-07-31T06:21:39;19.70;88.40
7562;DHT22;3822;48.784;9.174;2023-07-31T06:24:09;19.80;88.00
7562;DHT22;3822;48.784;9.174;2023-07-31T06:26:35;19.80;87.00
7562;DHT22;3822;48.784;9.174;2023-07-31T06:29:01;19.90;86.80
7562;DHT22;3822;48.784;9.174;2023-07-31T06:31:28;19.90;86.60
7562;DHT22;3822;48.784;9.174;2023-07-31T06:33:57;20.00;86.30
7562;DHT22;3822;48.784;9.174;2023-07-31T06:36:23;20.10;86.40
7562;DHT22;3822;48.784;9.174;2023-07-31T06:38:50;20.20;86.00
7562;DHT22;3822;48.784;9.174;2023-07-31T06:41:16;20.20;85.90
7562;DHT22;3822;48.784;9.174;2023-07-31T06:43:46;20.30;85.30
7562;DHT22;3822;48.784;9.174;2023-07-31T06:46:12;20.40;85.00
7562;DHT22;3822;48.784;9.174;2023-07-31T06:48:41;20.40;84.90
7562;DHT22;3822;48.784;9.174;2023-07-31T06:51:14;20.40;84.70
7562;DHT22;3822;48.784;9.174;2023-07-31T06:53:40;20.40;84.40
7562;DHT22;3822;48.784;9.174;2023-07-31T06:56:09;20.50;84.60
7562;DHT22;3822;48.784;9.174;2023-07-31T06:58:36;20.60;84.10
7562;DHT22;3822;48.784;9.174;2023-07-31T07:01:02;20.70;83.90
7562;DHT22;3822;48.784;9.174;2023-07-31T07:03:29;20.70;84.00
7562;DHT22;3822;48.784;9.174;2023-07-31T07:06:03;20.70;83.90
7562;DHT22;3822;48.784;9.174;2023-07-31T07:08:36;20.70;83.40
7562;DHT22;3822;48.784;9.174;2023-07-31T07:11:02;20.80;83.20
7562;DHT22;3822;48.784;9.174;2023-07-31T07:13:29;20.80;83.90
7562;DHT22;3822;48.784;9.174;2023-07-31T07:15:59;20.90;83.20
7562;DHT22;3822;48.784;9.174;2023-07-31T07:18:25;20.90;82.80
7562;DHT22;3822;48.784;9.174;2023-07-31T07:20:57;21.00;82.90
7562;DHT22;3822;48.784;9.174;2023-07-31T07:23:24;21.00;82.80
7562;DHT22;3822;48.784;9.174;2023-07-31T07:25:50;21.10;82.10
7562;DHT22;3822;48.784;9.174;2023-07-31T07:28:18;21.10;81.50
7562;DHT22;3822;48.784;9.174;2023-07-31T07:30:45;21.20;81.80
7562;DHT22;3822;48.784;9.174;2023-07-31T07:33:14;21.20;81.20
7562;DHT22;3822;48.784;9.174;2023-07-31T07:35:54;21.30;81.30
7562;DHT22;3822;48.784;9.174;2023-07-31T07:38:20;21.30;81.30
7562;DHT22;3822;48.784;9.174;2023-07-31T07:40:50;21.40;81.20
7562;DHT22;3822;48.784;9.174;2023-07-31T07:43:18;21.40;80.70
7562;DHT22;3822;48.784;9.174;2023-07-31T07:45:49;21.50;81.00
7562;DHT22;3822;48.784;9.174;2023-07-31T07:48:16;21.60;80.70
7562;DHT22;3822;48.784;9.174;2023-07-31T07:50:43;21.60;80.20
7562;DHT22;3822;48.784;9.174;2023-07-31T07:53:09;21.70;80.30
7562;DHT22;3822;48.784;9.174;2023-07-31T07:55:37;21.80;80.30
7562;DHT22;3822;48.784;9.174;2023-07-31T07:58:04;21.80;80.20
7562;DHT22;3822;48.784;9.174;2023-07-31T08:00:30;21.90;80.30
7562;DHT22;3822;48.784;9.174;2023-07-31T08:03:05;22.00;80.20
7562;DHT22;3822;48.784;9.174;2023-07-31T08:05:32;22.10;79.40
7562;DHT22;3822;48.784;9.174;2023-07-31T08:08:00;22.20;79.30
7562;DHT22;3822;48.784;9.174;2023-07-31T08:10:27;22.30;78.90
7562;DHT22;3822;48.784;9.174;2023-07-31T08:12:53;22.30;78.40
7562;DHT22;3822;48.784;9.174;2023-07-31T08:15:24;22.40;78.40
7562;DHT22;3822;48.784;9.174;2023-07-31T08:17:51;22.50;78.20
7562;DHT22;3822;48.784;9.174;2023-07-31T08:20:17;22.50;78.00
7562;DHT22;3822;48.784;9.174;2023-07-31T08:22:43;22.60;77.20
7562;DHT22;3822;48.784;9.174;2023-07-31T08:25:13;22.60;76.60
7562;DHT22;3822;48.784;9.174;2023-07-31T08:27:44;22.60;76.80
7562;DHT22;3822;48.784;9.174;2023-07-31T08:30:11;22.60;76.80
7562;DHT22;3822;48.784;9.174;2023-07-31T08:32:45;22.70;76.80
7562;DHT22;3822;48.784;9.174;2023-07-31T08:35:11;22.70;76.50
7562;DHT22;3822;48.784;9.174;2023-07-31T08:37:44;22.80;76.30
7562;DHT22;3822;48.784;9.174;2023-07-31T08:40:10;22.80;76.20
7562;DHT22;3822;48.784;9.174;2023-07-31T08:42:58;22.80;76.00
7562;DHT22;3822;48.784;9.174;2023-07-31T08:45:29;22.80;75.60
7562;DHT22;3822;48.784;9.174;2023-07-31T08:47:56;22.80;76.00
7562;DHT22;3822;48.784;9.174;2023-07-31T08:50:23;22.90;76.40
7562;DHT22;3822;48.784;9.174;2023-07-31T08:52:50;23.00;76.30
7562;DHT22;3822;48.784;9.174;2023-07-31T08:55:46;23.00;75.30
7562;DHT22;3822;48.784;9.174;2023-07-31T08:58:13;23.10;75.30
7562;DHT22;3822;48.784;9.174;2023-07-31T09:00:41;23.20;75.10
7562;DHT22;3822;48.784;9.174;2023-07-31T09:03:20;23.20;74.80
7562;DHT22;3822;48.784;9.174;2023-07-31T09:05:48;23.20;74.30
7562;DHT22;3822;48.784;9.174;2023-07-31T09:08:18;23.20;74.40
7562;DHT22;3822;48.784;9.174;2023-07-31T09:10:48;23.20;74.40
7562;DHT22;3822;48.784;9.174;2023-07-31T09:13:21;23.20;73.90
7562;DHT22;3822;48.784;9.174;2023-07-31T09:15:47;23.30;73.70
7562;DHT22;3822;48.784;9.174;2023-07-31T09:18:20;23.30;74.00
7562;DHT22;3822;48.784;9.174;2023-07-31T09:21:06;23.30;74.30
7562;DHT22;3822;48.784;9.174;2023-07-31T09:23:42;23.40;74.30
7562;DHT22;3822;48.784;9.174;2023-07-31T09:26:10;23.40;73.90
7562;DHT22;3822;48.784;9.174;2023-07-31T09:28:36;23.40;73.90
7562;DHT22;3822;48.784;9.174;2023-07-31T09:31:03;23.50;74.20
7562;DHT22;3822;48.784;9.174;2023-07-31T09:33:29;23.40;73.20
7562;DHT22;3822;48.784;9.174;2023-07-31T09:35:58;23.40;73.50
7562;DHT22;3822;48.784;9.174;2023-07-31T09:38:25;23.40;73.70
7562;DHT22;3822;48.784;9.174;2023-07-31T09:40:58;23.40;73.50
7562;DHT22;3822;48.784;9.174;2023-07-31T09:43:26;23.40;73.70
7562;DHT22;3822;48.784;9.174;2023-07-31T09:45:55;23.40;73.90
7562;DHT22;3822;48.784;9.174;2023-07-31T09:48:26;23.40;74.10
7562;DHT22;3822;48.784;9.174;2023-07-31T09:50:53;23.40;74.10
7562;DHT22;3822;48.784;9.174;2023-07-31T09:53:28;23.40;73.90
7562;DHT22;3822;48.784;9.174;2023-07-31T09:56:02;23.50;74.30
7562;DHT22;3822;48.784;9.174;2023-07-31T09:58:28;23.50;74.30
7562;DHT22;3822;48.784;9.174;2023-07-31T10:00:58;23.60;74.60
7562;DHT22;3822;48.784;9.174;2023-07-31T10:03:27;23.60;74.30
7562;DHT22;3822;48.784;9.174;2023-07-31T10:05:58;23.60;72.70
7562;DHT22;3822;48.784;9.174;2023-07-31T10:08:27;23.70;72.70
7562;DHT22;3822;48.784;9.174;2023-07-31T10:10:59;23.70;72.50
7562;DHT22;3822;48.784;9.174;2023-07-31T10:13:25;23.70;72.50
7562;DHT22;3822;48.784;9.174;2023-07-31T10:15:54;23.70;72.40
7562;DHT22;3822;48.784;9.174;2023-07-31T10:18:24;23.70;72.40
7562;DHT22;3822;48.784;9.174;2023-07-31T10:20:51;23.80;72.30
7562;DHT22;3822;48.784;9.174;2023-07-31T10:23:24;23.90;72.20
7562;DHT22;3822;48.784;9.174;2023-07-31T10:25:53;23.90;71.80
7562;DHT22;3822;48.784;9.174;2023-07-31T10:28:25;23.90;71.40
7562;DHT22;3822;48.784;9.174;2023-07-31T10:30:52;23.90;71.30
7562;DHT22;3822;48.784;9.174;2023-07-31T10:33:22;23.80;71.10
7562;DHT22;3822;48.784;9.174;2023-07-31T10:35:48;23.80;71.20
7562;DHT22;3822;48.784;9.174;2023-07-31T10:38:15;23.80;71.50
7562;DHT22;3822;48.784;9.174;2023-07-31T10:40:41;23.80;71.80
7562;DHT22;3822;48.784;9.174;2023-07-31T10:43:10;23.80;71.70
7562;DHT22;3822;48.784;9.174;2023-07-31T10:45:50;23.80;71.80
7562;DHT22;3822;48.784;9.174;2023-07-31T10:48:16;23.90;71.60
7562;DHT22;3822;48.784;9.174;2023-07-31T10:50:51;23.90;71.00
7562;DHT22;3822;48.784;9.174;2023-07-31T10:53:25;23.90;69.90
7562;DHT22;3822;48.784;9.174;2023-07-31T10:55:52;23.90;70.40
7562;DHT22;3822;48.784;9.174;2023-07-31T10:58:19;23.90;69.80
7562;DHT22;3822;48.784;9.174;2023-07-31T11:00:48;23.90;70.10
7562;DHT22;3822;48.784;9.174;2023-07-31T11:03:17;23.90;69.90
7562;DHT22;3822;48.784;9.174;2023-07-31T11:05:59;23.90;70.20
7562;DHT22;3822;48.784;9.174;2023-07-31T11:08:29;24.00;70.20
7562;DHT22;3822;48.784;9.174;2023-07-31T11:16:01;24.00;69.20
7562;DHT22;3822;48.784;9.174;2023-07-31T11:18:28;24.10;69.50
7562;DHT22;3822;48.784;9.174;2023-07-31T11:20:54;24.10;69.70
7562;DHT22;3822;48.784;9.174;2023-07-31T11:23:23;24.20;69.80
7562;DHT22;3822;48.784;9.174;2023-07-31T11:25:49;24.20;69.60
7562;DHT22;3822;48.784;9.174;2023-07-31T11:28:17;24.20;69.60
7562;DHT22;3822;48.784;9.174;2023-07-31T11:30:47;24.30;69.90
7562;DHT22;3822;48.784;9.174;2023-07-31T11:33:15;24.30;69.40
7562;DHT22;3822;48.784;9.174;2023-07-31T11:35:48;24.40;69.60
7562;DHT22;3822;48.784;9.174;2023-07-31T11:38:23;24.40;69.50
7562;DHT22;3822;48.784;9.174;2023-07-31T11:40:54;24.40;68.90
7562;DHT22;3822;48.784;9.174;2023-07-31T11:43:24;24.40;69.30
7562;DHT22;3822;48.784;9.174;2023-07-31T11:45:53;24.40;69.30
7562;DHT22;3822;48.784;9.174;2023-07-31T11:48:37;24.40;69.20
7562;DHT22;3822;48.784;9.174;2023-07-31T11:51:04;24.40;69.50
7562;DHT22;3822;48.784;9.174;2023-07-31T11:56:14;24.40;69.40
7562;DHT22;3822;48.784;9.174;2023-07-31T11:59:00;24.40;69.50
7562;DHT22;3822;48.784;9.174;2023-07-31T12:01:29;24.50;69.70
7562;DHT22;3822;48.784;9.174;2023-07-31T12:04:04;24.50;69.40
7562;DHT22;3822;48.784;9.174;2023-07-31T12:06:35;24.50;69.80
7562;DHT22;3822;48.784;9.174;2023-07-31T12:09:04;24.60;69.90
7562;DHT22;3822;48.784;9.174;2023-07-31T12:11:31;24.60;70.00
7562;DHT22;3822;48.784;9.174;2023-07-31T12:13:59;24.70;70.00
7562;DHT22;3822;48.784;9.174;2023-07-31T12:16:27;24.70;69.80
7562;DHT22;3822;48.784;9.174;2023-07-31T12:18:54;24.70;69.30
7562;DHT22;3822;48.784;9.174;2023-07-31T12:21:22;24.70;69.30
7562;DHT22;3822;48.784;9.174;2023-07-31T12:23:51;24.70;69.30
7562;DHT22;3822;48.784;9.174;2023-07-31T12:26:19;24.70;69.30
7562;DHT22;3822;48.784;9.174;2023-07-31T12:28:46;24.70;69.30
7562;DHT22;3822;48.784;9.174;2023-07-31T12:31:21;24.70;69.30
7562;DHT22;3822;48.784;9.174;2023-07-31T12:33:51;24.70;69.50
7562;DHT22;3822;48.784;9.174;2023-07-31T12:36:18;24.70;69.70
7562;DHT22;3822;48.784;9.174;2023-07-31T12:38:46;24.70;69.70
7562;DHT22;3822;48.784;9.174;2023-07-31T12:41:18;24.70;69.30
7562;DHT22;3822;48.784;9.174;2023-07-31T12:43:45;24.70;68.80
7562;DHT22;3822;48.784;9.174;2023-07-31T12:46:14;24.60;68.10
7562;DHT22;3822;48.784;9.174;2023-07-31T12:48:41;24.50;67.50
7562;DHT22;3822;48.784;9.174;2023-07-31T12:51:08;24.50;67.60
7562;DHT22;3822;48.784;9.174;2023-07-31T12:53:34;24.40;67.50
7562;DHT22;3822;48.784;9.174;2023-07-31T12:56:04;24.40;67.80
7562;DHT22;3822;48.784;9.174;2023-07-31T12:58:33;24.30;68.10
7562;DHT22;3822;48.784;9.174;2023-07-31T13:01:06;24.30;68.30
7562;DHT22;3822;48.784;9.174;2023-07-31T13:03:33;24.30;68.60
7562;DHT22;3822;48.784;9.174;2023-07-31T13:06:02;24.30;68.90
7562;DHT22;3822;48.784;9.174;2023-07-31T13:08:29;24.30;69.00
7562;DHT22;3822;48.784;9.174;2023-07-31T13:10:55;24.40;69.00
7562;DHT22;3822;48.784;9.174;2023-07-31T13:13:21;24.40;69.20
7562;DHT22;3822;48.784;9.174;2023-07-31T13:15:50;24.40;69.10
7562;DHT22;3822;48.784;9.174;2023-07-31T13:18:16;24.50;69.20
7562;DHT22;3822;48.784;9.174;2023-07-31T13:20:43;24.40;69.00
7562;DHT22;3822;48.784;9.174;2023-07-31T13:23:09;24.40;68.20
7562;DHT22;3822;48.784;9.174;2023-07-31T13:25:43;24.40;68.10
7562;DHT22;3822;48.784;9.174;2023-07-31T13:28:09;24.40;68.30
7562;DHT22;3822;48.784;9.174;2023-07-31T13:30:38;24.40;68.30
7562;DHT22;3822;48.784;9.174;2023-07-31T13:33:04;24.40;68.60
7562;DHT22;3822;48.784;9.174;2023-07-31T13:35:31;24.50;68.70
7562;DHT22;3822;48.784;9.174;2023-07-31T13:37:57;24.50;68.70
7562;DHT22;3822;48.784;9.174;2023-07-31T13:40:27;24.50;68.50
7562;DHT22;3822;48.784;9.174;2023-07-31T13:42:54;24.60;68.80
7562;DHT22;3822;48.784;9.174;2023-07-31T13:45:21;24.60;68.50
7562;DHT22;3822;48.784;9.174;2023-07-31T13:47:51;24.70;68.80
7562;DHT22;3822;48.784;9.174;2023-07-31T13:50:17;24.70;68.80
7562;DHT22;3822;48.784;9.174;2023-07-31T13:52:50;24.80;68.40
7562;DHT22;3822;48.784;9.174;2023-07-31T13:55:16;24.80;68.30
7562;DHT22;3822;48.784;9.174;2023-07-31T13:57:43;24.80;68.30
7562;DHT22;3822;48.784;9.174;2023-07-31T14:00:09;24.90;68.00
7562;DHT22;3822;48.784;9.174;2023-07-31T14:02:38;24.90;68.10
7562;DHT22;3822;48.784;9.174;2023-07-31T14:05:05;24.90;68.30
7562;DHT22;3822;48.784;9.174;2023-07-31T14:07:38;24.90;68.50
7562;DHT22;3822;48.784;9.174;2023-07-31T14:10:04;25.00;68.60
7562;DHT22;3822;48.784;9.174;2023-07-31T14:12:31;25.00;68.50
7562;DHT22;3822;48.784;9.174;2023-07-31T14:14:57;25.00;68.60
7562;DHT22;3822;48.784;9.174;2023-07-31T14:17:26;25.00;68.60
7562;DHT22;3822;48.784;9.174;2023-07-31T14:19:52;25.00;68.90
7562;DHT22;3822;48.784;9.174;2023-07-31T14:22:30;25.10;68.80
7562;DHT22;3822;48.784;9.174;2023-07-31T14:24:59;25.10;68.40
7562;DHT22;3822;48.784;9.174;2023-07-31T14:27:26;25.10;68.90
7562;DHT22;3822;48.784;9.174;2023-07-31T14:29:54;25.10;68.30
7562;DHT22;3822;48.784;9.174;2023-07-31T14:32:21;25.10;68.10
7562;DHT22;3822;48.784;9.174;2023-07-31T14:34:49;25.10;68.30
7562;DHT22;3822;48.784;9.174;2023-07-31T14:37:17;25.10;68.50
7562;DHT22;3822;48.784;9.174;2023-07-31T14:39:43;25.20;68.60
7562;DHT22;3822;48.784;9.174;2023-07-31T14:42:10;25.20;68.70
7562;DHT22;3822;48.784;9.174;2023-07-31T14:44:36;25.20;68.80
7562;DHT22;3822;48.784;9.174;2023-07-31T14:47:10;25.30;68.50
7562;DHT22;3822;48.784;9.174;2023-07-31T14:49:36;25.30;68.50
7562;DHT22;3822;48.784;9.174;2023-07-31T14:52:06;25.30;68.40
7562;DHT22;3822;48.784;9.174;2023-07-31T14:54:32;25.40;68.00
7562;DHT22;3822;48.784;9.174;2023-07-31T14:56:59;25.40;67.70
7562;DHT22;3822;48.784;9.174;2023-07-31T14:59:25;25.40;67.50
7562;DHT22;3822;48.784;9.174;2023-07-31T15:01:54;25.40;67.20
7562;DHT22;3822;48.784;9.174;2023-07-31T15:04:22;25.50;67.00
7562;DHT22;3822;48.784;9.174;2023-07-31T15:06:50;25.50;66.90
7562;DHT22;3822;48.784;9.174;2023-07-31T15:09:23;25.50;66.90
7562;DHT22;3822;48.784;9.174;2023-07-31T15:11:49;25.60;66.80
7562;DHT22;3822;48.784;9.174;2023-07-31T15:14:18;25.60;66.60
7562;DHT22;3822;48.784;9.174;2023-07-31T15:16:47;25.70;66.80
7562;DHT22;3822;48.784;9.174;2023-07-31T15:19:14;25.70;66.70
7562;DHT22;3822;48.784;9.174;2023-07-31T15:21:43;25.80;65.90
7562;DHT22;3822;48.784;9.174;2023-07-31T15:24:10;25.80;65.80
7562;DHT22;3822;48.784;9.174;2023-07-31T15:26:39;25.80;65.60
7562;DHT22;3822;48.784;9.174;2023-07-31T15:29:09;25.90;65.50
7562;DHT22;3822;48.784;9.174;2023-07-31T15:31:40;26.00;65.30
7562;DHT22;3822;48.784;9.174;2023-07-31T15:34:09;26.00;65.20
7562;DHT22;3822;48.784;9.174;2023-07-31T15:36:38;26.10;64.80
7562;DHT22;3822;48.784;9.174;2023-07-31T15:39:04;26.10;64.20
7562;DHT22;3822;48.784;9.174;2023-07-31T15:41:34;26.20;64.30
7562;DHT22;3822;48.784;9.174;2023-07-31T15:44:01;26.20;65.00
7562;DHT22;3822;48.784;9.174;2023-07-31T15:46:27;26.30;64.60
7562;DHT22;3822;48.784;9.174;2023-07-31T15:48:53;26.30;64.20
7562;DHT22;3822;48.784;9.174;2023-07-31T15:51:22;26.40;63.90
7562;DHT22;3822;48.784;9.174;2023-07-31T15:53:49;26.40;63.40
7562;DHT22;3822;48.784;9.174;2023-07-31T15:56:16;26.40;63.30
7562;DHT22;3822;48.784;9.174;2023-07-31T15:58:48;26.50;63.10
7562;DHT22;3822;48.784;9.174;2023-07-31T16:01:23;26.50;62.70
7562;DHT22;3822;48.784;9.174;2023-07-31T16:03:50;26.50;63.00
7562;DHT22;3822;48.784;9.174;2023-07-31T16:06:24;26.50;63.20
7562;DHT22;3822;48.784;9.174;2023-07-31T16:08:57;26.60;63.30
7562;DHT22;3822;48.784;9.174;2023-07-31T16:11:23;26.70;63.40
7562;DHT22;3822;48.784;9.174;2023-07-31T16:13:50;26.70;63.10
7562;DHT22;3822;48.784;9.174;2023-07-31T16:16:21;27.80;64.00
7562;DHT22;3822;48.784;9.174;2023-07-31T16:18:48;26.80;63.50
7562;DHT22;3822;48.784;9.174;2023-07-31T16:21:14;26.80;63.20
7562;DHT22;3822;48.784;9.174;2023-07-31T16:23:40;26.90;62.40
7562;DHT22;3822;48.784;9.174;2023-07-31T16:26:09;26.80;62.20